Time;durP1;ratioP1;P1;durP2;ratioP2;P2;SDS_P1;SDS_P2;PMS_P1;PMS_P2;Temp;Humidity;BMP_temperature;BMP_pressure;BME280_temperature;BME280_humidity;BME280_pressure;Samples;Min_cycle;Max_cycle;Signal;HPM_P1;HPM_P2
2024/04/22 00:00:52;;;;;;;7.7;6.1;;;;;;;;;;;;;
2024/04/22 00:03:17;;;;;;;6.7;5.3;;;;;;;;;;;;;
2024/04/22 00:05:42;;;;;;;6.2;5.2;;;;;;;;;;;;;
2024/04/22 00:08:07;;;;;;;5.4;4.6;;;;;;;;;;;;;
2024/04/22 00:10:35;;;;;;;5.9;5.2;;;;;;;;;;;;;
2024/04/22 00:12:57;;;;;;;5.5;4.6;;;;;;;;;;;;;
2024/04/22 00:15:23;;;;;;;8;5.3;;;;;;;;;;;;;
2024/04/22 00:17:48;;;;;;;5.9;5.3;;;;;;;;;;;;;
2024/04/22 00:20:13;;;;;;;8.9;6.2;;;;;;;;;;;;;
2024/04/22 00:22:38;;;;;;;8.1;6.8;;;;;;;;;;;;;
2024/04/22 00:25:03;;;;;;;7.9;6.2;;;;;;;;;;;;;
2024/04/22 00:27:28;;;;;;;9.2;6.7;;;;;;;;;;;;;
2024/04/22 00:29:53;;;;;;;8.8;6.6;;;;;;;;;;;;;
2024/04/22 00:32:18;;;;;;;10.4;7.6;;;;;;;;;;;;;
2024/04/22 00:34:43;;;;;;;8.8;7;;;;;;;;;;;;;
2024/04/22 00:37:13;;;;;;;8.2;7.1;;;;;;;;;;;;;
2024/04/22 00:39:34;;;;;;;8.8;6.9;;;;;;;;;;;;;
2024/04/22 00:42:00;;;;;;;9.8;7.3;;;;;;;;;;;;;
2024/04/22 00:44:25;;;;;;;8.2;6.2;;;;;;;;;;;;;
2024/04/22 00:46:50;;;;;;;7.2;5.9;;;;;;;;;;;;;
2024/04/22 00:49:15;;;;;;;8.3;6.2;;;;;;;;;;;;;
2024/04/22 00:51:40;;;;;;;7.1;5.7;;;;;;;;;;;;;
2024/04/22 00:54:07;;;;;;;7.2;5.9;;;;;;;;;;;;;
2024/04/22 00:56:31;;;;;;;7.3;6;;;;;;;;;;;;;
2024/04/22 00:58:56;;;;;;;6.8;6;;;;;;;;;;;;;
2024/04/22 01:01:24;;;;;;;6.8;5.7;;;;;;;;;;;;;
2024/04/22 01:03:46;;;;;;;7.4;6.4;;;;;;;;;;;;;
2024/04/22 01:06:11;;;;;;;7.3;6.2;;;;;;;;;;;;;
2024/04/22 01:08:36;;;;;;;6.4;5.6;;;;;;;;;;;;;
2024/04/22 01:11:01;;;;;;;5.5;4.9;;;;;;;;;;;;;
2024/04/22 01:13:27;;;;;;;6.4;5.4;;;;;;;;;;;;;
2024/04/22 01:15:52;;;;;;;5.6;5;;;;;;;;;;;;;
2024/04/22 01:18:17;;;;;;;6.4;5.2;;;;;;;;;;;;;
2024/04/22 01:20:42;;;;;;;5.6;4.9;;;;;;;;;;;;;
2024/04/22 01:23:07;;;;;;;6.5;5;;;;;;;;;;;;;
2024/04/22 01:25:35;;;;;;;5.7;5;;;;;;;;;;;;;
2024/04/22 01:27:57;;;;;;;6.9;5.5;;;;;;;;;;;;;
2024/04/22 01:30:22;;;;;;;6.4;5.6;;;;;;;;;;;;;
2024/04/22 01:32:47;;;;;;;7.7;5.6;;;;;;;;;;;;;
2024/04/22 01:35:13;;;;;;;6.6;5.4;;;;;;;;;;;;;
2024/04/22 01:37:38;;;;;;;7.1;6.4;;;;;;;;;;;;;
2024/04/22 01:40:03;;;;;;;8;6;;;;;;;;;;;;;
2024/04/22 01:42:28;;;;;;;6.8;5.9;;;;;;;;;;;;;
2024/04/22 01:44:53;;;;;;;8.2;6.9;;;;;;;;;;;;;
2024/04/22 01:47:18;;;;;;;8.1;6.7;;;;;;;;;;;;;
2024/04/22 01:49:43;;;;;;;8.6;6.7;;;;;;;;;;;;;
2024/04/22 01:52:09;;;;;;;9;7.2;;;;;;;;;;;;;
2024/04/22 01:54:34;;;;;;;8.9;7;;;;;;;;;;;;;
2024/04/22 01:56:59;;;;;;;9.5;7.2;;;;;;;;;;;;;
2024/04/22 01:59:24;;;;;;;8.7;7.2;;;;;;;;;;;;;
2024/04/22 02:01:49;;;;;;;9.6;7.4;;;;;;;;;;;;;
2024/04/22 02:04:14;;;;;;;10.4;7.5;;;;;;;;;;;;;
2024/04/22 02:06:39;;;;;;;9.4;7.5;;;;;;;;;;;;;
2024/04/22 02:09:04;;;;;;;8.5;7.2;;;;;;;;;;;;;
2024/04/22 02:11:29;;;;;;;9.7;7.7;;;;;;;;;;;;;
2024/04/22 02:13:55;;;;;;;9.8;7.5;;;;;;;;;;;;;
2024/04/22 02:16:20;;;;;;;9.7;7.9;;;;;;;;;;;;;
2024/04/22 02:18:45;;;;;;;9.2;7.4;;;;;;;;;;;;;
2024/04/22 02:21:10;;;;;;;9.4;7.2;;;;;;;;;;;;;
2024/04/22 02:23:35;;;;;;;9.1;6.5;;;;;;;;;;;;;
2024/04/22 02:26:00;;;;;;;7.1;6.4;;;;;;;;;;;;;
2024/04/22 02:28:25;;;;;;;7.9;6.3;;;;;;;;;;;;;
2024/04/22 02:30:50;;;;;;;7.1;6;;;;;;;;;;;;;
2024/04/22 02:33:16;;;;;;;6.1;5.3;;;;;;;;;;;;;
2024/04/22 02:35:40;;;;;;;6.3;5.3;;;;;;;;;;;;;
2024/04/22 02:38:06;;;;;;;5.7;5.1;;;;;;;;;;;;;
2024/04/22 02:40:31;;;;;;;4.8;4.3;;;;;;;;;;;;;
2024/04/22 02:42:56;;;;;;;6;4.4;;;;;;;;;;;;;
2024/04/22 02:45:24;;;;;;;4.3;3.7;;;;;;;;;;;;;
2024/04/22 02:47:46;;;;;;;4.9;3.7;;;;;;;;;;;;;
2024/04/22 02:50:12;;;;;;;3.4;3.1;;;;;;;;;;;;;
2024/04/22 02:52:37;;;;;;;3.8;3.4;;;;;;;;;;;;;
2024/04/22 02:55:02;;;;;;;3.3;3;;;;;;;;;;;;;
2024/04/22 02:57:27;;;;;;;4.2;3.2;;;;;;;;;;;;;
2024/04/22 02:59:52;;;;;;;3.2;2.7;;;;;;;;;;;;;
2024/04/22 03:02:17;;;;;;;3.1;2.8;;;;;;;;;;;;;
2024/04/22 03:04:42;;;;;;;3.7;2.9;;;;;;;;;;;;;
2024/04/22 03:07:07;;;;;;;2.9;2.6;;;;;;;;;;;;;
2024/04/22 03:09:38;;;;;;;2.7;2.5;;;;;;;;;;;;;
2024/04/22 03:11:57;;;;;;;3;2.7;;;;;;;;;;;;;
2024/04/22 03:14:23;;;;;;;3.1;2.8;;;;;;;;;;;;;
2024/04/22 03:16:48;;;;;;;3.2;2.7;;;;;;;;;;;;;
2024/04/22 03:19:13;;;;;;;3.9;2.6;;;;;;;;;;;;;
2024/04/22 03:21:38;;;;;;;3.1;2.7;;;;;;;;;;;;;
2024/04/22 03:24:04;;;;;;;3.2;2.4;;;;;;;;;;;;;
2024/04/22 03:26:29;;;;;;;3.4;2.7;;;;;;;;;;;;;
2024/04/22 03:28:54;;;;;;;3.6;2.4;;;;;;;;;;;;;
2024/04/22 03:31:19;;;;;;;2.7;2.4;;;;;;;;;;;;;
2024/04/22 03:33:44;;;;;;;3.7;2.6;;;;;;;;;;;;;
2024/04/22 03:36:09;;;;;;;3;2.5;;;;;;;;;;;;;
2024/04/22 03:38:34;;;;;;;2.7;2.4;;;;;;;;;;;;;
2024/04/22 03:40:59;;;;;;;3.2;2.6;;;;;;;;;;;;;
2024/04/22 03:43:24;;;;;;;3;2.6;;;;;;;;;;;;;
2024/04/22 03:50:42;;;;;;;4;2.9;;;;;;;;;;;;;
2024/04/22 03:53:04;;;;;;;3.8;2.9;;;;;;;;;;;;;
2024/04/22 03:55:29;;;;;;;3.1;2.8;;;;;;;;;;;;;
2024/04/22 03:57:55;;;;;;;3.9;2.9;;;;;;;;;;;;;
2024/04/22 04:02:28;;;;;;;4.1;3.2;;;;;;;;;;;;;
2024/04/22 04:04:53;;;;;;;5.2;3.2;;;;;;;;;;;;;
2024/04/22 04:07:18;;;;;;;4;3.4;;;;;;;;;;;;;
2024/04/22 04:09:44;;;;;;;4;3.6;;;;;;;;;;;;;
2024/04/22 04:12:09;;;;;;;6.1;3.8;;;;;;;;;;;;;
2024/04/22 04:14:34;;;;;;;4.1;3.5;;;;;;;;;;;;;
2024/04/22 04:16:59;;;;;;;3;2.7;;;;;;;;;;;;;
2024/04/22 04:19:25;;;;;;;4.1;3.1;;;;;;;;;;;;;
2024/04/22 04:21:49;;;;;;;5.2;3.3;;;;;;;;;;;;;
2024/04/22 04:24:15;;;;;;;3.6;3.1;;;;;;;;;;;;;
2024/04/22 04:26:39;;;;;;;4.4;3.2;;;;;;;;;;;;;
2024/04/22 04:29:05;;;;;;;3.9;3.4;;;;;;;;;;;;;
2024/04/22 04:31:30;;;;;;;4.4;3;;;;;;;;;;;;;
2024/04/22 04:33:55;;;;;;;3.8;2.8;;;;;;;;;;;;;
2024/04/22 04:36:22;;;;;;;3.3;2.7;;;;;;;;;;;;;
2024/04/22 04:38:45;;;;;;;3.3;2.6;;;;;;;;;;;;;
2024/04/22 04:41:13;;;;;;;3.2;2.9;;;;;;;;;;;;;
2024/04/22 04:43:36;;;;;;;3;2.5;;;;;;;;;;;;;
2024/04/22 04:46:02;;;;;;;4.5;2.8;;;;;;;;;;;;;
2024/04/22 04:48:26;;;;;;;3.1;2.8;;;;;;;;;;;;;
2024/04/22 04:50:51;;;;;;;3.9;3;;;;;;;;;;;;;
2024/04/22 04:53:16;;;;;;;3.4;3;;;;;;;;;;;;;
2024/04/22 04:55:41;;;;;;;4.8;3.7;;;;;;;;;;;;;
2024/04/22 04:58:06;;;;;;;4.9;3.1;;;;;;;;;;;;;
2024/04/22 05:00:31;;;;;;;5;3.2;;;;;;;;;;;;;
2024/04/22 05:02:57;;;;;;;4;3.6;;;;;;;;;;;;;
2024/04/22 05:05:21;;;;;;;6.5;3.6;;;;;;;;;;;;;
2024/04/22 05:07:48;;;;;;;3.8;3.3;;;;;;;;;;;;;
2024/04/22 05:10:12;;;;;;;4.7;3.3;;;;;;;;;;;;;
2024/04/22 05:12:38;;;;;;;6.2;3;;;;;;;;;;;;;
2024/04/22 05:15:02;;;;;;;4;2.9;;;;;;;;;;;;;
2024/04/22 05:17:27;;;;;;;3.4;3.1;;;;;;;;;;;;;
2024/04/22 05:19:52;;;;;;;4;3;;;;;;;;;;;;;
2024/04/22 05:22:17;;;;;;;4.4;3.4;;;;;;;;;;;;;
2024/04/22 05:24:43;;;;;;;3.8;3.1;;;;;;;;;;;;;
2024/04/22 05:27:07;;;;;;;3.6;3;;;;;;;;;;;;;
2024/04/22 05:29:33;;;;;;;3.7;3.2;;;;;;;;;;;;;
2024/04/22 05:31:58;;;;;;;4;3.4;;;;;;;;;;;;;
2024/04/22 05:36:48;;;;;;;3.8;3.4;;;;;;;;;;;;;
2024/04/22 05:39:13;;;;;;;4;3.2;;;;;;;;;;;;;
2024/04/22 05:41:39;;;;;;;3.5;3.1;;;;;;;;;;;;;
2024/04/22 05:44:03;;;;;;;3.4;3.1;;;;;;;;;;;;;
2024/04/22 05:46:28;;;;;;;3.4;3.1;;;;;;;;;;;;;
2024/04/22 05:48:53;;;;;;;3.2;2.9;;;;;;;;;;;;;
2024/04/22 05:51:18;;;;;;;3.5;3.2;;;;;;;;;;;;;
2024/04/22 05:53:43;;;;;;;4.2;3.6;;;;;;;;;;;;;
2024/04/22 05:56:09;;;;;;;4.2;3.8;;;;;;;;;;;;;
2024/04/22 05:58:35;;;;;;;4.8;3.9;;;;;;;;;;;;;
2024/04/22 06:00:59;;;;;;;4.3;3.9;;;;;;;;;;;;;
2024/04/22 06:03:24;;;;;;;4.7;4.1;;;;;;;;;;;;;
2024/04/22 06:05:49;;;;;;;4.4;4;;;;;;;;;;;;;
2024/04/22 06:08:14;;;;;;;5.6;4.1;;;;;;;;;;;;;
2024/04/22 06:10:41;;;;;;;5.2;4.3;;;;;;;;;;;;;
2024/04/22 06:13:05;;;;;;;4.6;4.1;;;;;;;;;;;;;
2024/04/22 06:15:30;;;;;;;4.3;3.9;;;;;;;;;;;;;
2024/04/22 06:17:55;;;;;;;4.4;4;;;;;;;;;;;;;
2024/04/22 06:20:20;;;;;;;5.3;4.4;;;;;;;;;;;;;
2024/04/22 06:22:46;;;;;;;4.7;3.8;;;;;;;;;;;;;
2024/04/22 06:25:10;;;;;;;4.1;3.5;;;;;;;;;;;;;
2024/04/22 06:27:36;;;;;;;4.4;3.8;;;;;;;;;;;;;
2024/04/22 06:30:01;;;;;;;5.9;4.6;;;;;;;;;;;;;
2024/04/22 06:32:58;;;;;;;4.7;3.6;;;;;;;;;;;;;
2024/04/22 06:35:24;;;;;;;4.5;3.8;;;;;;;;;;;;;
2024/04/22 06:37:53;;;;;;;4.6;4.1;;;;;;;;;;;;;
2024/04/22 06:40:13;;;;;;;6.4;3.9;;;;;;;;;;;;;
2024/04/22 06:42:38;;;;;;;4.5;3.8;;;;;;;;;;;;;
2024/04/22 06:45:03;;;;;;;5.1;4;;;;;;;;;;;;;
2024/04/22 06:47:30;;;;;;;3.9;3.5;;;;;;;;;;;;;
2024/04/22 06:49:55;;;;;;;4.4;3.7;;;;;;;;;;;;;
2024/04/22 06:52:22;;;;;;;4.1;3.7;;;;;;;;;;;;;
2024/04/22 06:54:45;;;;;;;4.3;3.9;;;;;;;;;;;;;
2024/04/22 06:57:11;;;;;;;3.8;3.4;;;;;;;;;;;;;
2024/04/22 06:59:36;;;;;;;3.7;3.1;;;;;;;;;;;;;
2024/04/22 07:02:01;;;;;;;4.3;3.7;;;;;;;;;;;;;
2024/04/22 07:04:26;;;;;;;4.2;3.7;;;;;;;;;;;;;
2024/04/22 07:06:51;;;;;;;4.2;3.7;;;;;;;;;;;;;
2024/04/22 07:09:16;;;;;;;6;4.2;;;;;;;;;;;;;
2024/04/22 07:11:41;;;;;;;4.5;3.6;;;;;;;;;;;;;
2024/04/22 07:14:06;;;;;;;4.9;3.9;;;;;;;;;;;;;
2024/04/22 07:16:33;;;;;;;5.4;3.7;;;;;;;;;;;;;
2024/04/22 07:18:56;;;;;;;4.8;4.1;;;;;;;;;;;;;
2024/04/22 07:21:22;;;;;;;4.7;3.9;;;;;;;;;;;;;
2024/04/22 07:23:46;;;;;;;4.4;3.8;;;;;;;;;;;;;
2024/04/22 07:26:12;;;;;;;5.7;3.8;;;;;;;;;;;;;
2024/04/22 07:28:37;;;;;;;5.5;3.6;;;;;;;;;;;;;
2024/04/22 07:31:02;;;;;;;5.3;4.2;;;;;;;;;;;;;
2024/04/22 07:33:27;;;;;;;3.8;3.4;;;;;;;;;;;;;
2024/04/22 07:35:52;;;;;;;4.7;3.8;;;;;;;;;;;;;
2024/04/22 07:38:19;;;;;;;6.4;4.3;;;;;;;;;;;;;
2024/04/22 07:40:42;;;;;;;5.2;4;;;;;;;;;;;;;
2024/04/22 07:43:07;;;;;;;5.7;4.2;;;;;;;;;;;;;
2024/04/22 07:45:32;;;;;;;6.2;4.4;;;;;;;;;;;;;
2024/04/22 07:47:57;;;;;;;4.8;4.1;;;;;;;;;;;;;
2024/04/22 07:50:23;;;;;;;5.5;4.4;;;;;;;;;;;;;
2024/04/22 07:52:49;;;;;;;6.5;4.7;;;;;;;;;;;;;
2024/04/22 07:55:13;;;;;;;5.2;4.5;;;;;;;;;;;;;
2024/04/22 07:57:38;;;;;;;6.2;4.8;;;;;;;;;;;;;
2024/04/22 08:00:03;;;;;;;6.3;4.5;;;;;;;;;;;;;
2024/04/22 08:02:28;;;;;;;4.7;4;;;;;;;;;;;;;
2024/04/22 08:04:53;;;;;;;5.5;4.3;;;;;;;;;;;;;
2024/04/22 08:07:18;;;;;;;4.6;3.7;;;;;;;;;;;;;
2024/04/22 08:09:43;;;;;;;4.7;4.1;;;;;;;;;;;;;
2024/04/22 08:12:09;;;;;;;5.8;4.7;;;;;;;;;;;;;
2024/04/22 08:14:34;;;;;;;5.3;4.5;;;;;;;;;;;;;
2024/04/22 08:16:59;;;;;;;6;4.6;;;;;;;;;;;;;
2024/04/22 08:19:24;;;;;;;6.3;4.6;;;;;;;;;;;;;
2024/04/22 08:21:49;;;;;;;6.4;5.2;;;;;;;;;;;;;
2024/04/22 08:24:14;;;;;;;6.5;4.9;;;;;;;;;;;;;
2024/04/22 08:26:40;;;;;;;6.2;4.8;;;;;;;;;;;;;
2024/04/22 08:29:10;;;;;;;5.4;4.7;;;;;;;;;;;;;
2024/04/22 08:31:32;;;;;;;5.8;4.7;;;;;;;;;;;;;
2024/04/22 08:34:00;;;;;;;6.6;5;;;;;;;;;;;;;
2024/04/22 08:36:21;;;;;;;6.7;5.4;;;;;;;;;;;;;
2024/04/22 08:38:49;;;;;;;8.1;5.7;;;;;;;;;;;;;
2024/04/22 08:41:29;;;;;;;;;;;;;;;;;;;;;
2024/04/22 08:43:52;;;;;;;9.2;6.3;;;;;;;;;;;;;
2024/04/22 08:46:08;;;;;;;8.1;5.5;;;;;;;;;;;;;
2024/04/22 08:48:33;;;;;;;7.3;5.8;;;;;;;;;;;;;
2024/04/22 08:50:58;;;;;;;10.5;6.7;;;;;;;;;;;;;
2024/04/22 08:53:45;;;;;;;8.7;6.4;;;;;;;;;;;;;
2024/04/22 08:55:51;;;;;;;8.8;6.4;;;;;;;;;;;;;
2024/04/22 08:58:14;;;;;;;9.1;6.6;;;;;;;;;;;;;
2024/04/22 09:00:39;;;;;;;8.6;6.8;;;;;;;;;;;;;
2024/04/22 09:03:05;;;;;;;9.9;7.5;;;;;;;;;;;;;
2024/04/22 09:05:29;;;;;;;10.9;8.3;;;;;;;;;;;;;
2024/04/22 09:07:54;;;;;;;12.3;8.3;;;;;;;;;;;;;
2024/04/22 09:10:22;;;;;;;12.5;8.7;;;;;;;;;;;;;
2024/04/22 09:12:45;;;;;;;13.6;8.7;;;;;;;;;;;;;
2024/04/22 09:15:11;;;;;;;12.1;9;;;;;;;;;;;;;
2024/04/22 09:17:36;;;;;;;14;9.4;;;;;;;;;;;;;
2024/04/22 09:20:02;;;;;;;12.7;9.7;;;;;;;;;;;;;
2024/04/22 09:22:26;;;;;;;13.1;9.2;;;;;;;;;;;;;
2024/04/22 09:24:51;;;;;;;12.9;9.5;;;;;;;;;;;;;
2024/04/22 09:27:17;;;;;;;11.8;9.1;;;;;;;;;;;;;
2024/04/22 09:29:48;;;;;;;13.7;9;;;;;;;;;;;;;
2024/04/22 09:32:12;;;;;;;11.9;8.9;;;;;;;;;;;;;
2024/04/22 09:34:37;;;;;;;13;9.1;;;;;;;;;;;;;
2024/04/22 09:37:02;;;;;;;13.2;9.6;;;;;;;;;;;;;
2024/04/22 09:39:27;;;;;;;13.5;9.6;;;;;;;;;;;;;
2024/04/22 09:42:15;;;;;;;12.1;9.4;;;;;;;;;;;;;
2024/04/22 09:47:12;;;;;;;12.7;9.5;;;;;;;;;;;;;
2024/04/22 09:49:32;;;;;;;11.7;9.9;;;;;;;;;;;;;
2024/04/22 09:52:01;;;;;;;11.8;9.6;;;;;;;;;;;;;
2024/04/22 18:30:01;;;;;;;12.3;10;;;;;;;;;;;;;
2024/04/22 18:33:14;;;;;;;7.6;6.2;;;;;;;;;;;;;
2024/04/22 18:35:39;;;;;;;7.4;6.5;;;;;;;;;;;;;
2024/04/22 18:38:05;;;;;;;7.7;6.7;;;;;;;;;;;;;
2024/04/22 18:40:29;;;;;;;8;7;;;;;;;;;;;;;
2024/04/22 18:42:54;;;;;;;8.1;7.1;;;;;;;;;;;;;
2024/04/22 18:45:20;;;;;;;8.3;7.1;;;;;;;;;;;;;
2024/04/22 18:47:45;;;;;;;7.8;7;;;;;;;;;;;;;
2024/04/22 18:50:11;;;;;;;8.9;6.8;;;;;;;;;;;;;
2024/04/22 18:52:35;;;;;;;7.9;6.8;;;;;;;;;;;;;
2024/04/22 18:55:01;;;;;;;8;6.8;;;;;;;;;;;;;
2024/04/22 18:57:25;;;;;;;8.3;6.6;;;;;;;;;;;;;
2024/04/22 18:59:50;;;;;;;7.6;6.6;;;;;;;;;;;;;
2024/04/22 19:02:16;;;;;;;8.4;6.8;;;;;;;;;;;;;
2024/04/22 19:04:40;;;;;;;9;6.8;;;;;;;;;;;;;
2024/04/22 19:07:05;;;;;;;7.9;6.5;;;;;;;;;;;;;
2024/04/22 19:09:30;;;;;;;8;6.4;;;;;;;;;;;;;
2024/04/22 19:11:56;;;;;;;8.1;6.8;;;;;;;;;;;;;
2024/04/22 19:14:21;;;;;;;7.8;7;;;;;;;;;;;;;
2024/04/22 19:16:46;;;;;;;8.1;6.4;;;;;;;;;;;;;
2024/04/22 19:19:11;;;;;;;7.9;6.9;;;;;;;;;;;;;
2024/04/22 19:21:36;;;;;;;7.8;6.7;;;;;;;;;;;;;
2024/04/22 19:24:01;;;;;;;8.2;6.7;;;;;;;;;;;;;
2024/04/22 19:26:27;;;;;;;9.5;7.1;;;;;;;;;;;;;
2024/04/22 19:28:51;;;;;;;8.6;7.2;;;;;;;;;;;;;
2024/04/22 19:31:17;;;;;;;8.9;7.5;;;;;;;;;;;;;
2024/04/22 19:33:42;;;;;;;8.6;7.4;;;;;;;;;;;;;
2024/04/22 19:36:07;;;;;;;8.4;7.5;;;;;;;;;;;;;
2024/04/22 19:38:32;;;;;;;8.9;7.3;;;;;;;;;;;;;
2024/04/22 19:40:57;;;;;;;8;6.9;;;;;;;;;;;;;
2024/04/22 19:43:22;;;;;;;9.2;7.5;;;;;;;;;;;;;
2024/04/22 19:45:47;;;;;;;9.4;7.5;;;;;;;;;;;;;
2024/04/22 19:48:12;;;;;;;8.7;7.1;;;;;;;;;;;;;
2024/04/22 19:50:38;;;;;;;7.8;6.9;;;;;;;;;;;;;
2024/04/22 19:53:03;;;;;;;9.6;8;;;;;;;;;;;;;
2024/04/22 19:55:28;;;;;;;8.4;7.2;;;;;;;;;;;;;
2024/04/22 19:57:53;;;;;;;8.4;7.6;;;;;;;;;;;;;
2024/04/22 20:00:18;;;;;;;8.5;7.5;;;;;;;;;;;;;
2024/04/22 20:02:43;;;;;;;8.4;7.3;;;;;;;;;;;;;
2024/04/22 20:05:08;;;;;;;7.9;7.1;;;;;;;;;;;;;
2024/04/22 20:07:33;;;;;;;9.7;7.5;;;;;;;;;;;;;
2024/04/22 20:09:59;;;;;;;9.3;7.3;;;;;;;;;;;;;
2024/04/22 20:12:24;;;;;;;9.8;7.1;;;;;;;;;;;;;
2024/04/22 20:14:49;;;;;;;7.6;6.8;;;;;;;;;;;;;
2024/04/22 20:17:14;;;;;;;8.3;6.8;;;;;;;;;;;;;
2024/04/22 20:19:39;;;;;;;8.8;7.4;;;;;;;;;;;;;
2024/04/22 20:22:04;;;;;;;8.4;7;;;;;;;;;;;;;
2024/04/22 20:24:29;;;;;;;9;7.5;;;;;;;;;;;;;
2024/04/22 20:26:54;;;;;;;9.4;7.6;;;;;;;;;;;;;
2024/04/22 20:29:20;;;;;;;9.7;7.9;;;;;;;;;;;;;
2024/04/22 20:31:44;;;;;;;8.7;7.6;;;;;;;;;;;;;
2024/04/22 20:34:10;;;;;;;8.9;7.3;;;;;;;;;;;;;
2024/04/22 20:36:35;;;;;;;8.1;7.2;;;;;;;;;;;;;
2024/04/22 20:39:00;;;;;;;8.2;7.3;;;;;;;;;;;;;
2024/04/22 20:41:25;;;;;;;8.6;7;;;;;;;;;;;;;
2024/04/22 20:44:35;;;;;;;8;6.9;;;;;;;;;;;;;
2024/04/22 20:47:00;;;;;;;8.2;6.9;;;;;;;;;;;;;
2024/04/22 20:49:25;;;;;;;8.1;6.7;;;;;;;;;;;;;
2024/04/22 20:51:51;;;;;;;8.5;7.3;;;;;;;;;;;;;
2024/04/22 20:54:16;;;;;;;8.4;7;;;;;;;;;;;;;
2024/04/22 20:56:44;;;;;;;8.4;7.1;;;;;;;;;;;;;
2024/04/22 20:59:07;;;;;;;8.1;7.1;;;;;;;;;;;;;
2024/04/22 21:01:35;;;;;;;8.2;6.9;;;;;;;;;;;;;
2024/04/22 21:03:56;;;;;;;7.3;6.4;;;;;;;;;;;;;
2024/04/22 21:06:21;;;;;;;8.7;7.3;;;;;;;;;;;;;
2024/04/22 21:08:47;;;;;;;8.4;7;;;;;;;;;;;;;
2024/04/22 21:11:12;;;;;;;8;6.9;;;;;;;;;;;;;
2024/04/22 21:13:37;;;;;;;9;7.6;;;;;;;;;;;;;
2024/04/22 21:16:02;;;;;;;8.7;7.3;;;;;;;;;;;;;
2024/04/22 21:18:28;;;;;;;8.2;7.1;;;;;;;;;;;;;
2024/04/22 21:20:52;;;;;;;8.3;7;;;;;;;;;;;;;
2024/04/22 21:23:17;;;;;;;7.9;6.8;;;;;;;;;;;;;
2024/04/22 21:25:42;;;;;;;8.6;7.3;;;;;;;;;;;;;
2024/04/22 21:28:08;;;;;;;8;7;;;;;;;;;;;;;
2024/04/22 21:30:33;;;;;;;8.5;6.8;;;;;;;;;;;;;
2024/04/22 21:32:58;;;;;;;7.4;6.4;;;;;;;;;;;;;
2024/04/22 21:35:24;;;;;;;8.6;7.3;;;;;;;;;;;;;
2024/04/22 21:37:48;;;;;;;8.2;6.7;;;;;;;;;;;;;
2024/04/22 21:40:13;;;;;;;7.7;6.8;;;;;;;;;;;;;
2024/04/22 21:42:38;;;;;;;7.6;6.9;;;;;;;;;;;;;
2024/04/22 21:45:03;;;;;;;7.9;7.1;;;;;;;;;;;;;
2024/04/22 21:47:28;;;;;;;7.7;6.9;;;;;;;;;;;;;
2024/04/22 21:49:53;;;;;;;7.5;6.7;;;;;;;;;;;;;
2024/04/22 21:52:19;;;;;;;7.9;7.1;;;;;;;;;;;;;
2024/04/22 21:54:44;;;;;;;8;6.7;;;;;;;;;;;;;
2024/04/22 21:57:09;;;;;;;7.4;6.6;;;;;;;;;;;;;
2024/04/22 21:59:34;;;;;;;8.1;7.1;;;;;;;;;;;;;
2024/04/22 22:01:59;;;;;;;7.4;6.6;;;;;;;;;;;;;
2024/04/22 22:04:24;;;;;;;6.9;6.2;;;;;;;;;;;;;
2024/04/22 22:06:51;;;;;;;7;6.2;;;;;;;;;;;;;
2024/04/22 22:09:15;;;;;;;6.7;5.8;;;;;;;;;;;;;
2024/04/22 22:11:41;;;;;;;6.3;5.7;;;;;;;;;;;;;
2024/04/22 22:14:05;;;;;;;6.7;6;;;;;;;;;;;;;
2024/04/22 22:16:30;;;;;;;7.3;6;;;;;;;;;;;;;
2024/04/22 22:18:55;;;;;;;6.5;5.9;;;;;;;;;;;;;
2024/04/22 22:21:21;;;;;;;6.5;5.8;;;;;;;;;;;;;
2024/04/22 22:23:46;;;;;;;6.2;5.4;;;;;;;;;;;;;
2024/04/22 22:26:11;;;;;;;7.1;5.9;;;;;;;;;;;;;
2024/04/22 22:28:36;;;;;;;6.4;5.8;;;;;;;;;;;;;
2024/04/22 22:31:01;;;;;;;6.5;5.7;;;;;;;;;;;;;
2024/04/22 22:33:26;;;;;;;5.8;5.2;;;;;;;;;;;;;
2024/04/22 22:35:51;;;;;;;5.5;5;;;;;;;;;;;;;
2024/04/22 22:38:28;;;;;;;6.1;5.2;;;;;;;;;;;;;
2024/04/22 22:40:54;;;;;;;6.1;5.4;;;;;;;;;;;;;
2024/04/22 22:45:20;;;;;;;5.6;5;;;;;;;;;;;;;
2024/04/22 22:47:45;;;;;;;5.5;4.8;;;;;;;;;;;;;
2024/04/22 22:50:10;;;;;;;5.5;5;;;;;;;;;;;;;
2024/04/22 22:52:35;;;;;;;6.1;5.5;;;;;;;;;;;;;
2024/04/22 22:55:00;;;;;;;5.2;4.6;;;;;;;;;;;;;
2024/04/22 22:57:26;;;;;;;5.1;4.6;;;;;;;;;;;;;
2024/04/22 22:59:50;;;;;;;5.1;4.6;;;;;;;;;;;;;
2024/04/22 23:02:15;;;;;;;5.3;4.7;;;;;;;;;;;;;
2024/04/22 23:04:41;;;;;;;5.6;4.8;;;;;;;;;;;;;
2024/04/22 23:07:06;;;;;;;5.4;4.8;;;;;;;;;;;;;
2024/04/22 23:09:31;;;;;;;5.7;4.9;;;;;;;;;;;;;
2024/04/22 23:11:56;;;;;;;6.1;5.2;;;;;;;;;;;;;
2024/04/22 23:14:21;;;;;;;5.5;4.7;;;;;;;;;;;;;
2024/04/22 23:16:46;;;;;;;6.1;5.4;;;;;;;;;;;;;
2024/04/22 23:19:12;;;;;;;6.5;5.2;;;;;;;;;;;;;
2024/04/22 23:21:37;;;;;;;6.3;5.3;;;;;;;;;;;;;
2024/04/22 23:24:02;;;;;;;5.7;5.1;;;;;;;;;;;;;
2024/04/22 23:26:27;;;;;;;5.4;4.9;;;;;;;;;;;;;
2024/04/22 23:28:52;;;;;;;6.2;5.4;;;;;;;;;;;;;
2024/04/22 23:31:17;;;;;;;6;5;;;;;;;;;;;;;
2024/04/22 23:33:43;;;;;;;5.7;5.1;;;;;;;;;;;;;
2024/04/22 23:36:08;;;;;;;5.5;5;;;;;;;;;;;;;
2024/04/22 23:38:33;;;;;;;5.6;5;;;;;;;;;;;;;
2024/04/22 23:40:58;;;;;;;6.5;5.2;;;;;;;;;;;;;
2024/04/22 23:43:23;;;;;;;5.3;4.8;;;;;;;;;;;;;
2024/04/22 23:45:48;;;;;;;5.4;4.8;;;;;;;;;;;;;
2024/04/22 23:48:13;;;;;;;4.9;4.3;;;;;;;;;;;;;
2024/04/22 23:50:38;;;;;;;5.3;4.8;;;;;;;;;;;;;
2024/04/22 23:53:03;;;;;;;4.7;4.2;;;;;;;;;;;;;
2024/04/22 23:55:28;;;;;;;5.2;4.6;;;;;;;;;;;;;
2024/04/22 23:57:54;;;;;;;5.2;4.5;;;;;;;;;;;;;
